createdAt,value
2022-10-22T00:00:19.977Z,3.33
2022-10-22T00:05:25.120Z,3.67
2022-10-22T00:10:30.144Z,2.85
2022-10-22T00:15:37.841Z,3.60
2022-10-22T00:20:42.910Z,3.47
2022-10-22T00:25:47.917Z,3.50
2022-10-22T00:31:01.571Z,3.28
2022-10-22T00:36:06.823Z,3.17
2022-10-22T00:41:11.988Z,3.08
2022-10-22T00:46:19.740Z,3.38
2022-10-22T00:51:26.622Z,3.35
2022-10-22T00:56:36.706Z,3.08
2022-10-22T01:01:45.421Z,2.90
2022-10-22T01:06:51.256Z,3.28
2022-10-22T01:12:03.372Z,3.42
2022-10-22T01:17:14.043Z,3.17
2022-10-22T01:22:22.171Z,3.42
2022-10-22T01:27:38.166Z,3.72
2022-10-22T01:32:48.718Z,3.42
2022-10-22T01:37:56.105Z,3.28
2022-10-22T01:43:02.657Z,4.00
2022-10-22T01:48:19.644Z,2.85
2022-10-22T01:53:36.070Z,3.67
2022-10-22T01:58:45.770Z,3.22
2022-10-22T02:03:59.416Z,3.63
2022-10-22T02:09:07.785Z,3.20
2022-10-22T02:14:14.246Z,3.35
2022-10-22T02:19:27.901Z,3.50
2022-10-22T02:24:32.927Z,3.80
2022-10-22T02:29:41.749Z,4.07
2022-10-22T02:34:49.777Z,3.95
2022-10-22T02:40:02.203Z,4.28
2022-10-22T02:45:08.094Z,4.53
2022-10-22T02:50:15.942Z,3.40
2022-10-22T02:55:21.053Z,3.33
2022-10-22T03:00:26.047Z,5.55
2022-10-22T03:05:33.763Z,3.45
2022-10-22T03:10:38.741Z,3.58
2022-10-22T03:15:43.781Z,4.38
2022-10-22T03:20:51.468Z,3.30
2022-10-22T03:31:01.147Z,4.60
2022-10-22T03:36:10.329Z,3.40
2022-10-22T03:41:15.455Z,3.55
2022-10-22T03:46:20.472Z,3.65
2022-10-22T03:51:29.666Z,3.20
2022-10-22T03:56:34.585Z,3.38
2022-10-22T04:01:39.606Z,3.35
2022-10-22T04:06:47.212Z,3.35
2022-10-22T04:11:52.260Z,4.72
2022-10-22T04:16:57.469Z,3.75
2022-10-22T04:22:05.340Z,3.50
2022-10-22T04:27:10.523Z,3.88
2022-10-22T04:32:15.696Z,3.65
2022-10-22T04:37:24.021Z,4.13
2022-10-22T04:42:29.167Z,3.60
2022-10-22T04:47:34.700Z,3.92
2022-10-22T04:52:42.415Z,3.65
2022-10-22T04:57:47.529Z,3.67
2022-10-22T05:02:53.361Z,4.13
2022-10-22T05:08:00.936Z,3.53
2022-10-22T05:13:06.011Z,3.53
2022-10-22T05:18:11.062Z,3.88
2022-10-22T05:23:21.124Z,4.05
2022-10-22T05:28:26.728Z,3.25
2022-10-22T05:33:33.091Z,4.13
2022-10-22T05:38:40.884Z,3.88
2022-10-22T05:48:53.068Z,3.67
2022-10-22T05:54:02.143Z,4.03
2022-10-22T05:59:07.632Z,4.97
2022-10-22T06:04:16.340Z,4.55
2022-10-22T06:09:26.715Z,4.15
2022-10-22T06:14:32.839Z,4.70
2022-10-22T06:19:37.978Z,5.15
2022-10-22T06:24:45.832Z,5.05
2022-10-22T06:29:51.584Z,4.85
2022-10-22T06:34:56.605Z,5.07
2022-10-22T06:40:04.463Z,5.32
2022-10-22T06:45:11.555Z,5.13
2022-10-22T06:50:16.863Z,4.43
2022-10-22T07:01:46.022Z,4.22
2022-10-22T07:06:51.117Z,4.22
2022-10-22T07:11:56.359Z,4.63
2022-10-22T07:17:04.099Z,4.35
2022-10-22T07:22:09.240Z,4.13
2022-10-22T07:27:14.410Z,3.65
2022-10-22T07:32:23.913Z,4.20
2022-10-22T07:37:29.090Z,5.57
2022-10-22T07:42:34.588Z,3.88
2022-10-22T07:47:42.560Z,4.63
2022-10-22T07:52:47.816Z,4.05
2022-10-22T07:57:52.860Z,4.60
2022-10-22T08:03:00.516Z,5.53
2022-10-22T08:08:05.415Z,5.07
2022-10-22T08:13:10.785Z,4.40
2022-10-22T08:18:18.577Z,4.35
2022-10-22T08:23:26.227Z,4.43
2022-10-22T08:28:37.203Z,4.93
2022-10-22T08:33:45.468Z,4.28
2022-10-22T08:38:50.520Z,4.35
2022-10-22T08:44:10.228Z,4.35
2022-10-22T08:54:32.031Z,5.05
2022-10-22T09:05:06.723Z,4.50
2022-10-22T09:10:16.204Z,4.75
2022-10-22T09:15:22.360Z,4.82
2022-10-22T09:20:36.396Z,6.30
2022-10-22T09:25:41.853Z,4.50
2022-10-22T09:30:46.966Z,4.57
2022-10-22T09:35:59.720Z,4.20
2022-10-22T09:41:05.725Z,5.00
2022-10-22T09:46:11.931Z,4.93
2022-10-22T09:51:48.982Z,4.30
2022-10-22T09:57:28.406Z,4.90
2022-10-22T10:02:39.682Z,4.50
2022-10-22T10:07:48.616Z,5.20
2022-10-22T10:13:18.449Z,5.05
2022-10-22T10:25:03.596Z,4.60
2022-10-22T10:30:21.844Z,5.03
2022-10-22T10:36:06.963Z,5.18
2022-10-22T10:41:36.456Z,4.40
2022-10-22T10:46:59.184Z,6.07
2022-10-22T10:59:21.176Z,5.00
2022-10-22T11:11:14.573Z,5.35
2022-10-22T11:33:28.994Z,6.45
2022-10-22T11:38:35.996Z,6.35
2022-10-22T11:56:04.469Z,5.45
2022-10-22T12:01:47.951Z,5.55
2022-10-22T12:07:14.466Z,5.80
2022-10-22T12:12:46.785Z,6.22
2022-10-22T14:16:18.965Z,7.32
2022-10-22T14:22:08.622Z,7.15
2022-10-22T14:38:28.983Z,7.80
2022-10-22T14:44:06.487Z,8.00
2022-10-22T14:49:11.863Z,9.00
2022-10-22T14:54:19.779Z,8.80
2022-10-22T14:59:25.089Z,8.82
2022-10-22T15:04:30.776Z,8.70
2022-10-22T15:09:38.989Z,9.15
2022-10-22T15:14:57.759Z,10.57
2022-10-22T15:20:04.479Z,10.68
2022-10-22T15:25:29.167Z,10.75
2022-10-22T15:31:07.641Z,10.32
2022-10-22T15:36:44.925Z,11.00
2022-10-22T15:41:54.522Z,11.90
2022-10-22T15:47:06.606Z,11.75
2022-10-22T15:52:16.378Z,11.98
2022-10-22T15:58:03.443Z,13.90
2022-10-22T16:03:43.551Z,12.43
2022-10-22T16:20:36.032Z,12.45
2022-10-22T16:25:45.059Z,12.52
2022-10-22T16:30:54.028Z,13.60
2022-10-22T16:36:03.887Z,12.90
2022-10-22T16:41:14.540Z,14.07
2022-10-22T16:46:28.950Z,20.25
2022-10-22T16:51:48.219Z,19.30
2022-10-22T16:57:09.687Z,13.23
2022-10-22T17:02:38.683Z,12.57
2022-10-22T17:07:46.659Z,13.27
2022-10-22T17:12:52.156Z,17.95
2022-10-22T17:18:04.933Z,29.33
2022-10-22T17:23:09.911Z,27.45
2022-10-22T17:28:48.427Z,21.45
2022-10-22T17:34:16.540Z,11.85
2022-10-22T17:39:30.544Z,13.45
2022-10-22T17:44:35.683Z,13.68
2022-10-22T17:49:45.931Z,12.77
2022-10-22T17:54:55.328Z,10.50
2022-10-22T18:00:00.715Z,8.57
2022-10-22T18:05:12.897Z,6.60
2022-10-22T18:10:18.229Z,7.28
2022-10-22T18:15:40.969Z,6.40
2022-10-22T18:20:52.296Z,5.90
2022-10-22T18:26:14.637Z,3.72
2022-10-22T18:31:53.085Z,2.50
2022-10-22T18:42:32.465Z,2.53
2022-10-22T18:48:01.030Z,2.60
2022-10-22T18:53:59.084Z,1.52
2022-10-22T18:59:17.719Z,1.33
2022-10-22T19:04:24.803Z,1.70
2022-10-22T19:09:33.062Z,2.10
2022-10-22T19:26:43.243Z,2.47
2022-10-22T19:31:56.959Z,1.42
2022-10-22T19:37:39.716Z,3.30
2022-10-22T19:42:49.927Z,1.77
2022-10-22T19:47:57.818Z,3.05
2022-10-22T19:53:06.008Z,2.65
2022-10-22T19:58:13.052Z,1.92
2022-10-22T20:03:27.345Z,2.97
2022-10-22T20:08:34.746Z,3.45
2022-10-22T20:18:47.661Z,2.63
2022-10-22T20:23:56.885Z,2.90
2022-10-22T20:29:02.445Z,2.75
2022-10-22T20:34:10.194Z,2.95
2022-10-22T20:39:16.811Z,2.67
2022-10-22T20:44:22.243Z,2.90
2022-10-22T20:49:33.398Z,3.30
2022-10-22T20:54:41.655Z,2.95
2022-10-22T21:00:04.640Z,4.78
2022-10-22T21:06:22.913Z,3.25
2022-10-22T21:12:24.080Z,5.10
2022-10-22T21:18:06.020Z,5.63
2022-10-22T21:23:13.893Z,3.80
2022-10-22T21:28:19.190Z,4.10
2022-10-22T21:33:24.727Z,3.40
2022-10-22T21:38:37.930Z,3.92
2022-10-22T21:43:44.920Z,3.58
2022-10-22T21:48:59.517Z,3.28
2022-10-22T21:54:12.879Z,4.38
2022-10-22T22:00:06.722Z,4.03
2022-10-22T22:05:38.337Z,3.90
2022-10-22T22:11:29.868Z,4.53
2022-10-22T22:16:37.743Z,4.35
2022-10-22T22:22:04.625Z,4.35
2022-10-22T22:32:28.189Z,4.13
2022-10-22T22:43:11.188Z,4.18
2022-10-22T22:48:16.453Z,5.55
2022-10-22T22:53:21.613Z,4.47
2022-10-22T22:58:29.559Z,6.32
2022-10-22T23:03:34.757Z,4.72
2022-10-22T23:08:41.723Z,4.05
2022-10-22T23:13:49.963Z,4.07
2022-10-22T23:19:10.524Z,4.18
2022-10-22T23:24:37.799Z,3.97
2022-10-22T23:29:54.340Z,3.70
2022-10-22T23:35:09.110Z,3.72
2022-10-22T23:40:30.196Z,3.17
2022-10-22T23:45:50.951Z,3.45
2022-10-22T23:51:20.016Z,3.75
2022-10-22T23:56:36.179Z,4.25
